Al Rekayyat — V7QF3 — position and weather

sailwx.info

Track history (hours):
 
Tides and Currents Weather Stations Pressure Air Temp Water Temp Dewpoint Dewpoint Depression Visibility Wind Speed Wind Dir Waves Ship Positions

Al Rekayyat

Last reported at 2015-Apr-27 05:33 UTC. Time now 2015-Apr-28 06:52 UTC.
Position N 39°21' W 009°58'.

Length 315 m; draft 12.4 m.

Type: Ship (hazmat cat D). MMSI: 538003347.

Date/timePositionNaut miles runAvg speedWind from/ knotsBaromVisibWave heightAir tempDewpointWater temp
2015-Apr-27 05:33N 39°21' W 009°58'1919.2
2015-Apr-27 04:33N 39°02' W 009°58'1919.0
2015-Apr-27 03:33N 38°43' W 009°57'1918.8
2015-Apr-27 02:34N 38°24' W 009°52'1918.6
2015-Apr-27 01:32N 38°06' W 009°47'1818.2
2015-Apr-27 00:32N 37°48' W 009°41'1818.4
2015-Apr-26 23:33N 37°31' W 009°36'21316.4
2015-Apr-26 10:34N 35°59' W 005°36'1616.4
2015-Apr-26 09:34N 36°01' W 005°16'13619.3
2015-Apr-26 02:31N 36°13' W 002°28'1818.7
2015-Apr-26 01:33N 36°17' W 002°06'2819.3
2015-Apr-26 00:05N 36°25' W 001°33'1119.6
2015-Apr-25 23:31N 36°28' W 001°19'2718.9
2015-Apr-25 22:04N 36°35' W 000°46'1019.2
2015-Apr-25 21:34N 36°36' W 000°34'1919.2
2015-Apr-25 20:33N 36°41' W 000°11'2019.7
2015-Apr-25 19:33N 36°47' E 000°12'1919.3
2015-Apr-25 18:33N 36°51' E 000°36'1919.2
2015-Apr-25 17:33N 36°56' E 000°59'2119.9
2015-Apr-25 16:31N 37°02' E 001°24'2019.4
2015-Apr-25 15:28N 37°07' E 001°48'1819.5
2015-Apr-25 14:33N 37°12' E 002°10'15918.7
2015-Apr-25 06:03N 37°35' E 005°28'4919.6
2015-Apr-25 03:33N 37°41' E 006°30'2119.6
2015-Apr-25 02:30N 37°42' E 006°56'2019.8
2015-Apr-25 01:30N 37°44' E 007°21'15619.1
2015-Apr-24 17:22N 37°37' E 010°37'15719.3
2015-Apr-24 09:16N 36°39' E 013°39'1419.0
2015-Apr-24 08:33N 36°35' E 013°56'1919.6
2015-Apr-24 07:34N 36°29' E 014°18'2019.3
2015-Apr-24 06:33N 36°23' E 014°41'2019.5
2015-Apr-24 05:32N 36°17' E 015°05'2719.5
2015-Apr-24 04:08N 36°09' E 015°37'1219.6
2015-Apr-24 03:32N 36°05' E 015°51'  
Track history (hours):
 
Tides and Currents Weather Stations Pressure Air Temp Water Temp Dewpoint Dewpoint Depression Visibility Wind Speed Wind Dir Waves Ship Positions

Al Rekayyat

Last reported at 2015-Apr-27 05:33 UTC. Time now 2015-Apr-28 06:52 UTC.
Position N 39°21' W 009°58'.

Length 315 m; draft 12.4 m.

Type: Ship (hazmat cat D). MMSI: 538003347.

Date/timePositionNaut miles runAvg speedWind from/ knotsBaromVisibWave heightAir tempDewpointWater temp
2015-Apr-27 05:33N 39°21' W 009°58'1919.2
2015-Apr-27 04:33N 39°02' W 009°58'1919.0
2015-Apr-27 03:33N 38°43' W 009°57'1918.8
2015-Apr-27 02:34N 38°24' W 009°52'1918.6
2015-Apr-27 01:32N 38°06' W 009°47'1818.2
2015-Apr-27 00:32N 37°48' W 009°41'1818.4
2015-Apr-26 23:33N 37°31' W 009°36'21316.4
2015-Apr-26 10:34N 35°59' W 005°36'1616.4
2015-Apr-26 09:34N 36°01' W 005°16'13619.3
2015-Apr-26 02:31N 36°13' W 002°28'1818.7
2015-Apr-26 01:33N 36°17' W 002°06'2819.3
2015-Apr-26 00:05N 36°25' W 001°33'1119.6
2015-Apr-25 23:31N 36°28' W 001°19'2718.9
2015-Apr-25 22:04N 36°35' W 000°46'1019.2
2015-Apr-25 21:34N 36°36' W 000°34'1919.2
2015-Apr-25 20:33N 36°41' W 000°11'2019.7
2015-Apr-25 19:33N 36°47' E 000°12'1919.3
2015-Apr-25 18:33N 36°51' E 000°36'1919.2
2015-Apr-25 17:33N 36°56' E 000°59'2119.9
2015-Apr-25 16:31N 37°02' E 001°24'2019.4
2015-Apr-25 15:28N 37°07' E 001°48'1819.5
2015-Apr-25 14:33N 37°12' E 002°10'15918.7
2015-Apr-25 06:03N 37°35' E 005°28'4919.6
2015-Apr-25 03:33N 37°41' E 006°30'2119.6
2015-Apr-25 02:30N 37°42' E 006°56'2019.8
2015-Apr-25 01:30N 37°44' E 007°21'15619.1
2015-Apr-24 17:22N 37°37' E 010°37'15719.3
2015-Apr-24 09:16N 36°39' E 013°39'1419.0
2015-Apr-24 08:33N 36°35' E 013°56'1919.6
2015-Apr-24 07:34N 36°29' E 014°18'2019.3
2015-Apr-24 06:33N 36°23' E 014°41'2019.5
2015-Apr-24 05:32N 36°17' E 015°05'2719.5
2015-Apr-24 04:08N 36°09' E 015°37'1219.6
2015-Apr-24 03:32N 36°05' E 015°51'  

Dump ship's entire track history